»·PEaware :: N3486 KSBA-KSNA

N3486 :: KSBA-KSNA

FLIGHT INFORMATION

Flight Status: Arrived
Operator: Privately registered:
United States
More flights under this callsign
Pilot: John C. (9438)
Aircraft: PILATUS PC-12 EAGLE
(PC12)
More flights by this aircraft type
Origin: KSBA Santa Barbara Mun
United States
Destination: KSNA John Wayne-Orange Co
United States
More flights between these airports :: More routes between these airports
Route: +KWANG VTU V208 SXC SLI
File this flight plan on PilotEdge
Remarks:
Altitude:
(Current/Filed)
9,000ft
Speed:
(Current/Filed)
200kts
Departed: 06-Dec-18 03:18 PM
Arrived: 06-Dec-18 04:04 PM
Distance/Time
Traveled:
108nm/0:46
Distance/Time
To Go:
Arrived

Flight Plot

Page will automatically refresh every two minutes.


Map Options




Map Legend


Flown Route
Filed Route
Departure Airport
Arrival Airport
Navaid (VOR, NDB)
Fix

Horizontal Profiles

Position Reports

Time Latitude Longitude Heading Altitude Ground
Speed
06-Dec-18 14:49 34.432435 -119.835550 70 17ft 0kts
06-Dec-18 14:50 34.432435 -119.835550 70 17ft 0kts
06-Dec-18 14:51 34.432435 -119.835550 70 17ft 0kts
06-Dec-18 14:52 34.432435 -119.835550 70 17ft 0kts
06-Dec-18 14:53 34.432435 -119.835550 70 17ft 0kts
06-Dec-18 14:54 34.432435 -119.835550 70 17ft 0kts
06-Dec-18 14:55 34.432435 -119.835550 70 17ft 0kts
06-Dec-18 14:56 34.432435 -119.835550 70 17ft 0kts
06-Dec-18 14:57 34.432435 -119.835550 70 17ft 0kts
06-Dec-18 14:58 34.432435 -119.835550 70 17ft 0kts
06-Dec-18 14:59 34.432435 -119.835550 70 17ft 0kts
06-Dec-18 15:00 34.432435 -119.835550 70 17ft 0kts
06-Dec-18 15:01 34.432368 -119.835462 169 17ft 0kts
06-Dec-18 15:02 34.432368 -119.835462 169 17ft 0kts
06-Dec-18 15:03 34.432368 -119.835462 169 17ft 0kts
06-Dec-18 15:04 34.432368 -119.835462 169 17ft 0kts
06-Dec-18 15:05 34.432368 -119.835462 169 17ft 0kts
06-Dec-18 15:06 34.432368 -119.835462 169 17ft 0kts
06-Dec-18 15:07 34.432368 -119.835462 169 17ft 0kts
06-Dec-18 15:08 34.432368 -119.835462 169 17ft 0kts
06-Dec-18 15:09 34.432368 -119.835462 169 17ft 0kts
06-Dec-18 15:10 34.432368 -119.835462 169 17ft 0kts
06-Dec-18 15:11 34.432368 -119.835462 169 17ft 0kts
06-Dec-18 15:12 34.432368 -119.835462 169 17ft 0kts
06-Dec-18 15:13 34.432368 -119.835462 169 17ft 0kts
06-Dec-18 15:14 34.431281 -119.837919 250 17ft 9kts
06-Dec-18 15:15 34.430759 -119.839651 244 17ft 0kts
06-Dec-18 15:16 34.430759 -119.839651 244 17ft 0kts
06-Dec-18 15:17 34.429292 -119.839935 166 17ft 42kts
06-Dec-18 15:18 34.409160 -119.831615 162 819ft 76kts
06-Dec-18 15:19 34.387575 -119.822973 162 1747ft 85kts
06-Dec-18 15:20 34.364931 -119.813893 162 2688ft 87kts
06-Dec-18 15:21 34.336029 -119.801997 161 3005ft 151kts
06-Dec-18 15:22 34.287746 -119.782524 162 3001ft 202kts
06-Dec-18 15:23 34.258994 -119.738940 84 4048ft 190kts
06-Dec-18 15:24 34.252171 -119.679956 106 5218ft 178kts
06-Dec-18 15:25 34.238479 -119.621878 101 6114ft 181kts
06-Dec-18 15:26 34.225627 -119.561641 99 6920ft 188kts
06-Dec-18 15:27 34.212369 -119.499454 99 7720ft 192kts
06-Dec-18 15:28 34.198209 -119.433096 100 7992ft 216kts
06-Dec-18 15:29 34.182370 -119.359650 100 7991ft 229kts
06-Dec-18 15:30 34.166235 -119.284740 100 7993ft 232kts
06-Dec-18 15:31 34.149838 -119.208609 101 7995ft 233kts
06-Dec-18 15:32 34.133398 -119.132743 101 8219ft 223kts
06-Dec-18 15:33 34.113827 -119.064587 127 8895ft 216kts
06-Dec-18 15:34 34.055993 -119.043204 174 9000ft 236kts
06-Dec-18 15:35 33.989402 -119.036037 174 9000ft 243kts
06-Dec-18 15:36 33.921549 -119.028934 174 9000ft 246kts
06-Dec-18 15:37 33.853384 -119.021788 174 9001ft 246kts
06-Dec-18 15:38 33.787033 -119.006225 143 9001ft 245kts
06-Dec-18 15:39 33.746547 -118.952251 127 9013ft 245kts
06-Dec-18 15:40 33.710903 -118.899814 128 8999ft 247kts
06-Dec-18 15:41 33.675775 -118.849034 131 9000ft 241kts
06-Dec-18 15:42 33.637541 -118.794179 131 9007ft 227kts
06-Dec-18 15:43 33.604292 -118.746486 132 9009ft 223kts
06-Dec-18 15:44 33.565262 -118.690570 132 9009ft 221kts
06-Dec-18 15:45 33.532677 -118.630934 89 9008ft 232kts
06-Dec-18 15:46 33.543085 -118.573504 81 8851ft 226kts
06-Dec-18 15:47 33.553496 -118.518943 81 7985ft 220kts
06-Dec-18 15:48 33.565002 -118.454764 81 6950ft 212kts
06-Dec-18 15:49 33.577006 -118.376266 81 5637ft 207kts
06-Dec-18 15:50 33.584978 -118.307784 81 5006ft 187kts
06-Dec-18 15:51 33.583254 -118.247550 101 5006ft 158kts
06-Dec-18 15:52 33.573110 -118.194266 101 4724ft 156kts
06-Dec-18 15:53 33.561266 -118.132435 101 3449ft 144kts
06-Dec-18 15:54 33.549743 -118.079186 101 2034ft 136kts
06-Dec-18 15:55 33.540554 -118.039523 101 2008ft 118kts
06-Dec-18 15:56 33.531789 -118.001213 101 2010ft 119kts
06-Dec-18 15:57 33.531717 -117.964201 48 2013ft 118kts
06-Dec-18 15:59 33.559579 -117.942222 30 2012ft 121kts
06-Dec-18 16:00 33.590333 -117.922772 30 1772ft 133kts
06-Dec-18 16:01 33.618097 -117.905252 31 1189ft 100kts
06-Dec-18 16:02 33.640434 -117.891175 30 707ft 87kts
06-Dec-18 16:03 33.661399 -117.877990 32 252ft 84kts
06-Dec-18 16:04 33.673374 -117.870299 28 60ft 16kts
06-Dec-18 16:05 33.674239 -117.870798 308 60ft 0kts
06-Dec-18 16:06 33.672933 -117.872076 209 60ft 10kts
06-Dec-18 16:07 33.672182 -117.873464 199 60ft 0kts
06-Dec-18 16:08 33.672182 -117.873464 199 60ft 0kts
06-Dec-18 16:09 33.672182 -117.873464 199 60ft 0kts
06-Dec-18 16:10 33.672182 -117.873464 199 60ft 0kts
06-Dec-18 16:11 33.672182 -117.873464 199 60ft 0kts
06-Dec-18 16:12 33.672182 -117.873464 199 60ft 0kts

Navigation Log

Ident Type
Flight plan parsing failed, navigation log unavailable